sensor_id;sensor_type;location;lat;lon;timestamp;pressure;altitude;pressure_sealevel;temperature;humidity
7168;BME280;3625;51.762;14.320;2022-07-05T00:00:52;100658.09;;;15.25;63.61
7168;BME280;3625;51.762;14.320;2022-07-05T00:03:22;100811.97;;;16.16;63.36
7168;BME280;3625;51.762;14.320;2022-07-05T00:05:52;100796.47;;;16.03;63.31
7168;BME280;3625;51.762;14.320;2022-07-05T00:08:26;100810.41;;;16.11;62.85
7168;BME280;3625;51.762;14.320;2022-07-05T00:11:01;100941.16;;;16.81;63.07
7168;BME280;3625;51.762;14.320;2022-07-05T00:13:32;100861.22;;;16.31;63.27
7168;BME280;3625;51.762;14.320;2022-07-05T00:16:07;100865.28;;;16.18;63.21
7168;BME280;3625;51.762;14.320;2022-07-05T00:18:40;100886.78;;;16.15;64.09
7168;BME280;3625;51.762;14.320;2022-07-05T00:21:12;100608.53;;;14.50;64.26
7168;BME280;3625;51.762;14.320;2022-07-05T00:23:44;100793.50;;;15.40;64.54
7168;BME280;3625;51.762;14.320;2022-07-05T00:26:14;100939.81;;;16.24;65.23
7168;BME280;3625;51.762;14.320;2022-07-05T00:28:43;100932.84;;;16.20;65.76
7168;BME280;3625;51.762;14.320;2022-07-05T00:31:24;100833.72;;;15.59;65.96
7168;BME280;3625;51.762;14.320;2022-07-05T00:33:55;100943.75;;;16.14;66.14
7168;BME280;3625;51.762;14.320;2022-07-05T00:36:23;100904.75;;;15.87;66.78
7168;BME280;3625;51.762;14.320;2022-07-05T00:38:53;100889.13;;;15.76;67.04
7168;BME280;3625;51.762;14.320;2022-07-05T00:41:21;100950.31;;;16.05;67.21
7168;BME280;3625;51.762;14.320;2022-07-05T00:43:55;100927.72;;;15.91;67.45
7168;BME280;3625;51.762;14.320;2022-07-05T00:46:27;100894.88;;;15.65;67.88
7168;BME280;3625;51.762;14.320;2022-07-05T00:48:59;100956.84;;;15.97;68.05
7168;BME280;3625;51.762;14.320;2022-07-05T00:51:36;100933.31;;;15.83;68.55
7168;BME280;3625;51.762;14.320;2022-07-05T00:54:30;100950.75;;;15.93;69.10
7168;BME280;3625;51.762;14.320;2022-07-05T00:57:03;100956.81;;;15.98;69.58
7168;BME280;3625;51.762;14.320;2022-07-05T00:59:34;100952.34;;;15.99;69.78
7168;BME280;3625;51.762;14.320;2022-07-05T01:02:04;100649.41;;;14.22;69.65
7168;BME280;3625;51.762;14.320;2022-07-05T01:04:33;100948.03;;;15.95;69.76
7168;BME280;3625;51.762;14.320;2022-07-05T01:07:05;100800.75;;;15.12;69.97
7168;BME280;3625;51.762;14.320;2022-07-05T01:09:34;100940.84;;;15.97;70.47
7168;BME280;3625;51.762;14.320;2022-07-05T01:12:04;100889.25;;;15.73;70.48
7168;BME280;3625;51.762;14.320;2022-07-05T01:14:35;100723.25;;;14.68;70.73
7168;BME280;3625;51.762;14.320;2022-07-05T01:17:06;100855.25;;;15.53;70.64
7168;BME280;3625;51.762;14.320;2022-07-05T01:19:39;100900.66;;;15.76;71.09
7168;BME280;3625;51.762;14.320;2022-07-05T01:22:16;100866.91;;;15.51;71.32
7168;BME280;3625;51.762;14.320;2022-07-05T01:24:53;100860.41;;;15.33;71.37
7168;BME280;3625;51.762;14.320;2022-07-05T01:27:27;100928.41;;;15.72;71.85
7168;BME280;3625;51.762;14.320;2022-07-05T01:29:55;100885.16;;;15.38;72.04
7168;BME280;3625;51.762;14.320;2022-07-05T01:32:26;100783.47;;;14.72;72.12
7168;BME280;3625;51.762;14.320;2022-07-05T01:35:07;100822.72;;;14.94;72.61
7168;BME280;3625;51.762;14.320;2022-07-05T01:37:38;100701.97;;;14.16;73.92
7168;BME280;3625;51.762;14.320;2022-07-05T01:40:09;100709.94;;;14.16;73.65
7168;BME280;3625;51.762;14.320;2022-07-05T01:42:43;100928.59;;;15.40;74.04
7168;BME280;3625;51.762;14.320;2022-07-05T01:45:15;100744.91;;;14.31;74.15
7168;BME280;3625;51.762;14.320;2022-07-05T01:48:15;100888.50;;;15.18;73.84
7168;BME280;3625;51.762;14.320;2022-07-05T01:50:52;100902.66;;;15.20;73.99
7168;BME280;3625;51.762;14.320;2022-07-05T01:53:24;100786.84;;;14.53;73.83
7168;BME280;3625;51.762;14.320;2022-07-05T01:56:03;100646.66;;;13.71;74.11
7168;BME280;3625;51.762;14.320;2022-07-05T01:58:34;100753.84;;;14.29;74.22
7168;BME280;3625;51.762;14.320;2022-07-05T02:01:04;100914.97;;;15.23;74.77
7168;BME280;3625;51.762;14.320;2022-07-05T02:03:33;100916.91;;;15.19;74.83
7168;BME280;3625;51.762;14.320;2022-07-05T02:06:22;100687.97;;;13.83;75.02
7168;BME280;3625;51.762;14.320;2022-07-05T02:08:57;100924.09;;;15.16;75.15
7168;BME280;3625;51.762;14.320;2022-07-05T02:11:29;100693.28;;;13.83;75.16
7168;BME280;3625;51.762;14.320;2022-07-05T02:14:01;100727.38;;;13.98;75.35
7168;BME280;3625;51.762;14.320;2022-07-05T02:16:38;100924.53;;;15.03;75.53
7168;BME280;3625;51.762;14.320;2022-07-05T02:19:07;100894.44;;;14.73;75.59
7168;BME280;3625;51.762;14.320;2022-07-05T02:21:51;100924.00;;;14.92;76.00
7168;BME280;3625;51.762;14.320;2022-07-05T02:24:20;100930.28;;;14.90;76.11
7168;BME280;3625;51.762;14.320;2022-07-05T02:27:19;100829.47;;;14.22;76.24
7168;BME280;3625;51.762;14.320;2022-07-05T02:29:54;100875.84;;;14.44;76.93
7168;BME280;3625;51.762;14.320;2022-07-05T02:32:54;100937.97;;;14.72;77.02
7168;BME280;3625;51.762;14.320;2022-07-05T02:35:22;100946.06;;;14.69;77.25
7168;BME280;3625;51.762;14.320;2022-07-05T02:38:00;100947.03;;;14.67;77.39
7168;BME280;3625;51.762;14.320;2022-07-05T02:40:33;100699.44;;;13.26;77.30
7168;BME280;3625;51.762;14.320;2022-07-05T02:43:10;100663.84;;;13.01;77.50
7168;BME280;3625;51.762;14.320;2022-07-05T02:45:39;100945.34;;;14.63;77.66
7168;BME280;3625;51.762;14.320;2022-07-05T02:48:08;100940.09;;;14.61;77.83
7168;BME280;3625;51.762;14.320;2022-07-05T02:50:40;100902.81;;;14.32;77.90
7168;BME280;3625;51.762;14.320;2022-07-05T02:53:13;100938.59;;;14.53;77.99
7168;BME280;3625;51.762;14.320;2022-07-05T02:55:49;100918.75;;;14.33;78.08
7168;BME280;3625;51.762;14.320;2022-07-05T02:58:23;100821.09;;;13.77;78.60
7168;BME280;3625;51.762;14.320;2022-07-05T03:01:08;100932.06;;;14.33;78.73
7168;BME280;3625;51.762;14.320;2022-07-05T03:03:47;100729.91;;;13.13;78.84
7168;BME280;3625;51.762;14.320;2022-07-05T03:06:17;100878.88;;;14.01;79.15
7168;BME280;3625;51.762;14.320;2022-07-05T03:08:52;100954.09;;;14.39;79.21
7168;BME280;3625;51.762;14.320;2022-07-05T03:11:27;100792.97;;;13.39;79.47
7168;BME280;3625;51.762;14.320;2022-07-05T03:13:59;100924.66;;;14.14;79.64
7168;BME280;3625;51.762;14.320;2022-07-05T03:16:35;100598.88;;;12.20;79.79
7168;BME280;3625;51.762;14.320;2022-07-05T03:19:08;100746.88;;;13.07;80.08
7168;BME280;3625;51.762;14.320;2022-07-05T03:21:40;100740.34;;;12.88;80.07
7168;BME280;3625;51.762;14.320;2022-07-05T03:24:14;100948.41;;;14.20;80.63
7168;BME280;3625;51.762;14.320;2022-07-05T03:26:44;100948.44;;;14.18;80.83
7168;BME280;3625;51.762;14.320;2022-07-05T03:29:15;100921.81;;;13.89;80.97
7168;BME280;3625;51.762;14.320;2022-07-05T03:32:00;100934.03;;;13.96;81.23
7168;BME280;3625;51.762;14.320;2022-07-05T03:34:29;100796.19;;;13.19;81.30
7168;BME280;3625;51.762;14.320;2022-07-05T03:37:05;100915.81;;;13.82;81.74
7168;BME280;3625;51.762;14.320;2022-07-05T03:39:39;100943.69;;;14.00;81.73
7168;BME280;3625;51.762;14.320;2022-07-05T03:42:11;100973.22;;;14.20;82.10
7168;BME280;3625;51.762;14.320;2022-07-05T03:44:44;100779.72;;;13.05;82.00
7168;BME280;3625;51.762;14.320;2022-07-05T03:47:51;100689.91;;;12.54;82.12
7168;BME280;3625;51.762;14.320;2022-07-05T03:55:58;100983.63;;;14.29;82.40
7168;BME280;3625;51.762;14.320;2022-07-05T03:59:50;100679.13;;;12.62;82.88
7168;BME280;3625;51.762;14.320;2022-07-05T04:02:42;100811.56;;;13.40;83.48
7168;BME280;3625;51.762;14.320;2022-07-05T04:05:29;100987.22;;;14.59;83.47
7168;BME280;3625;51.762;14.320;2022-07-05T04:08:16;100969.84;;;14.46;83.61
7168;BME280;3625;51.762;14.320;2022-07-05T04:14:01;100924.59;;;14.15;84.23
7168;BME280;3625;51.762;14.320;2022-07-05T04:16:40;100886.16;;;13.96;84.75
7168;BME280;3625;51.762;14.320;2022-07-05T04:19:09;100784.97;;;13.40;85.07
7168;BME280;3625;51.762;14.320;2022-07-05T04:21:47;100998.53;;;14.66;85.67
7168;BME280;3625;51.762;14.320;2022-07-05T04:24:18;100994.00;;;14.69;86.06
7168;BME280;3625;51.762;14.320;2022-07-05T04:26:48;100824.22;;;13.62;86.06
7168;BME280;3625;51.762;14.320;2022-07-05T04:29:20;100726.66;;;13.03;85.59
7168;BME280;3625;51.762;14.320;2022-07-05T04:31:56;100871.13;;;13.93;85.74
7168;BME280;3625;51.762;14.320;2022-07-05T04:34:25;101019.22;;;14.87;86.15
7168;BME280;3625;51.762;14.320;2022-07-05T04:36:57;100938.03;;;14.42;86.52
7168;BME280;3625;51.762;14.320;2022-07-05T04:39:26;100937.13;;;14.43;86.41
7168;BME280;3625;51.762;14.320;2022-07-05T04:42:05;101026.88;;;14.96;87.14
7168;BME280;3625;51.762;14.320;2022-07-05T04:44:38;101033.91;;;14.99;88.39
7168;BME280;3625;51.762;14.320;2022-07-05T04:47:21;100861.09;;;14.03;88.32
7168;BME280;3625;51.762;14.320;2022-07-05T04:49:55;101042.53;;;15.07;88.85
7168;BME280;3625;51.762;14.320;2022-07-05T04:52:26;100981.16;;;14.82;89.52
7168;BME280;3625;51.762;14.320;2022-07-05T04:54:59;101040.22;;;15.24;89.36
7168;BME280;3625;51.762;14.320;2022-07-05T04:57:37;100922.31;;;14.62;89.00
7168;BME280;3625;51.762;14.320;2022-07-05T05:00:22;100932.50;;;14.77;88.42
7168;BME280;3625;51.762;14.320;2022-07-05T05:03:13;100947.13;;;14.92;88.13
7168;BME280;3625;51.762;14.320;2022-07-05T05:05:42;101037.34;;;15.58;87.90
7168;BME280;3625;51.762;14.320;2022-07-05T05:08:13;101045.97;;;15.66;87.18
7168;BME280;3625;51.762;14.320;2022-07-05T05:10:42;101048.31;;;15.75;86.52
7168;BME280;3625;51.762;14.320;2022-07-05T05:13:17;101035.50;;;15.87;86.02
7168;BME280;3625;51.762;14.320;2022-07-05T05:15:46;101008.22;;;15.78;85.42
7168;BME280;3625;51.762;14.320;2022-07-05T05:18:23;100758.59;;;14.47;84.13
7168;BME280;3625;51.762;14.320;2022-07-05T05:20:56;101040.22;;;16.28;83.62
7168;BME280;3625;51.762;14.320;2022-07-05T05:23:25;101042.00;;;16.52;82.63
7168;BME280;3625;51.762;14.320;2022-07-05T05:25:57;100953.19;;;16.24;81.28
7168;BME280;3625;51.762;14.320;2022-07-05T05:28:34;101046.94;;;17.10;80.11
7168;BME280;3625;51.762;14.320;2022-07-05T05:31:10;100913.59;;;16.57;78.80
7168;BME280;3625;51.762;14.320;2022-07-05T05:33:41;101052.09;;;17.58;78.04
7168;BME280;3625;51.762;14.320;2022-07-05T05:36:10;101049.50;;;17.78;76.51
7168;BME280;3625;51.762;14.320;2022-07-05T05:38:45;100901.50;;;17.14;75.99
7168;BME280;3625;51.762;14.320;2022-07-05T05:41:19;100959.63;;;17.73;74.92
7168;BME280;3625;51.762;14.320;2022-07-05T05:43:48;101052.47;;;18.52;73.26
7168;BME280;3625;51.762;14.320;2022-07-05T05:46:18;100881.66;;;17.60;72.56
7168;BME280;3625;51.762;14.320;2022-07-05T05:48:52;101059.16;;;18.82;72.73
7168;BME280;3625;51.762;14.320;2022-07-05T05:51:26;100876.91;;;17.87;71.82
7168;BME280;3625;51.762;14.320;2022-07-05T05:53:58;101065.91;;;19.09;71.23
7168;BME280;3625;51.762;14.320;2022-07-05T05:56:28;100891.03;;;18.28;69.87
7168;BME280;3625;51.762;14.320;2022-07-05T05:59:01;101065.19;;;19.42;68.26
7168;BME280;3625;51.762;14.320;2022-07-05T06:01:31;100863.97;;;18.34;66.64
7168;BME280;3625;51.762;14.320;2022-07-05T06:04:06;100902.66;;;18.66;67.45
7168;BME280;3625;51.762;14.320;2022-07-05T06:06:48;100930.38;;;18.83;66.88
7168;BME280;3625;51.762;14.320;2022-07-05T06:09:19;100994.13;;;19.32;66.90
7168;BME280;3625;51.762;14.320;2022-07-05T06:11:56;101065.78;;;19.84;65.21
7168;BME280;3625;51.762;14.320;2022-07-05T06:14:29;100924.69;;;19.08;61.60
7168;BME280;3625;51.762;14.320;2022-07-05T06:17:12;100800.50;;;18.53;60.78
7168;BME280;3625;51.762;14.320;2022-07-05T06:19:45;100973.28;;;19.55;59.07
7168;BME280;3625;51.762;14.320;2022-07-05T06:22:17;100807.66;;;18.71;59.44
7168;BME280;3625;51.762;14.320;2022-07-05T06:24:52;101073.97;;;20.33;56.83
7168;BME280;3625;51.762;14.320;2022-07-05T06:27:43;100981.97;;;19.95;55.03
7168;BME280;3625;51.762;14.320;2022-07-05T06:30:25;100980.94;;;19.98;54.33
7168;BME280;3625;51.762;14.320;2022-07-05T06:32:59;101008.31;;;20.21;55.07
7168;BME280;3625;51.762;14.320;2022-07-05T06:35:40;101072.91;;;20.70;54.04
7168;BME280;3625;51.762;14.320;2022-07-05T06:38:11;100799.16;;;19.15;53.31
7168;BME280;3625;51.762;14.320;2022-07-05T06:40:42;101080.13;;;20.85;52.88
7168;BME280;3625;51.762;14.320;2022-07-05T06:43:18;101065.31;;;20.94;51.37
7168;BME280;3625;51.762;14.320;2022-07-05T06:46:14;101000.66;;;20.64;52.26
7168;BME280;3625;51.762;14.320;2022-07-05T06:48:48;100928.22;;;20.28;51.21
7168;BME280;3625;51.762;14.320;2022-07-05T06:51:41;100893.63;;;20.06;51.64
7168;BME280;3625;51.762;14.320;2022-07-05T06:54:22;100760.38;;;19.38;52.20
7168;BME280;3625;51.762;14.320;2022-07-05T06:57:11;100968.53;;;20.61;52.66
7168;BME280;3625;51.762;14.320;2022-07-05T07:00:11;100900.41;;;20.29;52.67
7168;BME280;3625;51.762;14.320;2022-07-05T07:03:03;100830.41;;;19.99;51.51
7168;BME280;3625;51.762;14.320;2022-07-05T07:05:55;101069.19;;;21.53;49.92
7168;BME280;3625;51.762;14.320;2022-07-05T07:09:06;100897.84;;;20.59;49.59
7168;BME280;3625;51.762;14.320;2022-07-05T07:11:47;100817.53;;;20.21;48.79
7168;BME280;3625;51.762;14.320;2022-07-05T07:14:17;100955.88;;;21.10;48.95
7168;BME280;3625;51.762;14.320;2022-07-05T07:16:48;100860.91;;;20.62;49.13
7168;BME280;3625;51.762;14.320;2022-07-05T07:19:17;100861.06;;;20.59;47.96
7168;BME280;3625;51.762;14.320;2022-07-05T09:29:26;100943.34;;;23.52;35.36
7168;BME280;3625;51.762;14.320;2022-07-05T09:32:23;101050.84;;;24.26;35.74
7168;BME280;3625;51.762;14.320;2022-07-05T12:31:28;100852.22;;;25.60;31.35
7168;BME280;3625;51.762;14.320;2022-07-05T12:34:17;100907.09;;;25.86;31.42
7168;BME280;3625;51.762;14.320;2022-07-05T12:36:49;100937.97;;;26.07;31.73
7168;BME280;3625;51.762;14.320;2022-07-05T12:39:20;100758.91;;;25.18;32.32
7168;BME280;3625;51.762;14.320;2022-07-05T12:41:48;100906.50;;;26.05;32.30
7168;BME280;3625;51.762;14.320;2022-07-05T12:44:18;100952.16;;;26.22;31.95
7168;BME280;3625;51.762;14.320;2022-07-05T12:46:48;100874.34;;;25.89;31.97
7168;BME280;3625;51.762;14.320;2022-07-05T12:49:18;100981.91;;;26.57;31.49
7168;BME280;3625;51.762;14.320;2022-07-05T12:51:52;100981.91;;;26.79;31.02
7168;BME280;3625;51.762;14.320;2022-07-05T12:54:24;100961.94;;;26.69;31.03
7168;BME280;3625;51.762;14.320;2022-07-05T12:57:14;100917.53;;;26.37;31.22
7168;BME280;3625;51.762;14.320;2022-07-05T13:00:04;100800.72;;;25.49;31.38
7168;BME280;3625;51.762;14.320;2022-07-05T13:02:40;100981.66;;;26.49;31.40
7168;BME280;3625;51.762;14.320;2022-07-05T13:05:20;100975.00;;;26.64;31.59
7168;BME280;3625;51.762;14.320;2022-07-05T13:07:50;100979.56;;;26.86;31.27
7168;BME280;3625;51.762;14.320;2022-07-05T13:10:29;100970.44;;;26.98;31.24
7168;BME280;3625;51.762;14.320;2022-07-05T13:13:12;100731.59;;;25.32;30.67
7168;BME280;3625;51.762;14.320;2022-07-05T13:15:46;100971.94;;;26.68;31.58
7168;BME280;3625;51.762;14.320;2022-07-05T13:18:27;100741.09;;;25.49;31.13
7168;BME280;3625;51.762;14.320;2022-07-05T13:20:55;100776.00;;;25.76;30.86
7168;BME280;3625;51.762;14.320;2022-07-05T13:23:34;100743.25;;;25.68;30.88
7168;BME280;3625;51.762;14.320;2022-07-05T13:26:05;100984.47;;;27.14;30.37
7168;BME280;3625;51.762;14.320;2022-07-05T13:28:34;100865.03;;;26.81;30.07
7168;BME280;3625;51.762;14.320;2022-07-05T13:31:03;100847.19;;;26.56;30.45
7168;BME280;3625;51.762;14.320;2022-07-05T13:33:36;100831.94;;;26.33;30.40
7168;BME280;3625;51.762;14.320;2022-07-05T13:36:05;100965.28;;;27.27;30.81
7168;BME280;3625;51.762;14.320;2022-07-05T13:38:35;100936.09;;;27.40;30.64
7168;BME280;3625;51.762;14.320;2022-07-05T13:41:04;100941.84;;;27.78;29.88
7168;BME280;3625;51.762;14.320;2022-07-05T13:43:34;100928.81;;;28.03;28.90
7168;BME280;3625;51.762;14.320;2022-07-05T13:46:02;100778.00;;;27.14;29.16
7168;BME280;3625;51.762;14.320;2022-07-05T13:48:37;100778.16;;;27.43;28.45
7168;BME280;3625;51.762;14.320;2022-07-05T13:51:07;100755.06;;;27.28;27.91
7168;BME280;3625;51.762;14.320;2022-07-05T13:53:36;100934.94;;;28.16;28.85
7168;BME280;3625;51.762;14.320;2022-07-05T13:56:09;100931.25;;;27.75;29.40
7168;BME280;3625;51.762;14.320;2022-07-05T13:58:44;100866.91;;;27.12;29.68
7168;BME280;3625;51.762;14.320;2022-07-05T14:01:12;100827.19;;;26.57;30.22
7168;BME280;3625;51.762;14.320;2022-07-05T14:03:45;100930.28;;;27.01;30.61
7168;BME280;3625;51.762;14.320;2022-07-05T14:06:14;100934.13;;;26.99;30.78
7168;BME280;3625;51.762;14.320;2022-07-05T14:08:42;100707.97;;;25.56;30.59
7168;BME280;3625;51.762;14.320;2022-07-05T14:11:11;100855.97;;;26.48;30.94
7168;BME280;3625;51.762;14.320;2022-07-05T14:13:54;100720.06;;;25.64;30.70
7168;BME280;3625;51.762;14.320;2022-07-05T14:16:29;100898.38;;;26.72;30.85
7168;BME280;3625;51.762;14.320;2022-07-05T14:19:03;100947.91;;;27.07;30.36
7168;BME280;3625;51.762;14.320;2022-07-05T14:21:36;100951.25;;;27.11;30.38
7168;BME280;3625;51.762;14.320;2022-07-05T14:24:05;100915.66;;;26.71;30.70
7168;BME280;3625;51.762;14.320;2022-07-05T14:26:35;100779.16;;;25.59;31.37
7168;BME280;3625;51.762;14.320;2022-07-05T14:29:18;100804.53;;;25.58;31.77
7168;BME280;3625;51.762;14.320;2022-07-05T14:31:47;100832.16;;;25.63;31.77
7168;BME280;3625;51.762;14.320;2022-07-05T14:34:23;100940.94;;;26.15;32.14
7168;BME280;3625;51.762;14.320;2022-07-05T14:36:54;100790.81;;;25.37;31.93
7168;BME280;3625;51.762;14.320;2022-07-05T14:39:22;100936.91;;;26.54;31.85
7168;BME280;3625;51.762;14.320;2022-07-05T14:41:53;100910.88;;;26.52;31.78
7168;BME280;3625;51.762;14.320;2022-07-05T14:44:23;100936.38;;;26.94;31.55
7168;BME280;3625;51.762;14.320;2022-07-05T14:46:51;100887.53;;;26.72;31.84
7168;BME280;3625;51.762;14.320;2022-07-05T14:49:22;100776.72;;;25.89;31.85
7168;BME280;3625;51.762;14.320;2022-07-05T14:51:51;100747.84;;;25.43;32.18
7168;BME280;3625;51.762;14.320;2022-07-05T14:54:29;100706.44;;;24.97;32.51
7168;BME280;3625;51.762;14.320;2022-07-05T14:57:00;100653.63;;;24.45;32.44
7168;BME280;3625;51.762;14.320;2022-07-05T14:59:30;100913.06;;;26.02;32.57
7168;BME280;3625;51.762;14.320;2022-07-05T15:02:08;100824.28;;;25.71;31.89
7168;BME280;3625;51.762;14.320;2022-07-05T15:04:40;100763.88;;;25.46;31.79
7168;BME280;3625;51.762;14.320;2022-07-05T15:07:11;100929.63;;;26.33;32.19
7168;BME280;3625;51.762;14.320;2022-07-05T15:09:57;100850.78;;;25.67;32.49
7168;BME280;3625;51.762;14.320;2022-07-05T15:12:28;100847.81;;;25.59;32.68
7168;BME280;3625;51.762;14.320;2022-07-05T15:14:58;100830.25;;;25.41;32.91
7168;BME280;3625;51.762;14.320;2022-07-05T15:17:33;100899.22;;;25.83;32.84
7168;BME280;3625;51.762;14.320;2022-07-05T15:20:04;100729.72;;;24.99;33.13
7168;BME280;3625;51.762;14.320;2022-07-05T15:22:48;100913.22;;;26.45;32.79
7168;BME280;3625;51.762;14.320;2022-07-05T15:25:19;100913.69;;;26.50;32.14
7168;BME280;3625;51.762;14.320;2022-07-05T15:27:50;100922.94;;;26.48;31.62
7168;BME280;3625;51.762;14.320;2022-07-05T15:30:21;100676.81;;;24.71;32.38
7168;BME280;3625;51.762;14.320;2022-07-05T15:32:53;100903.66;;;25.84;32.80
7168;BME280;3625;51.762;14.320;2022-07-05T15:35:31;100771.84;;;25.14;32.92
7168;BME280;3625;51.762;14.320;2022-07-05T15:38:00;100744.88;;;25.35;32.59
7168;BME280;3625;51.762;14.320;2022-07-05T15:40:54;100710.91;;;25.20;32.24
7168;BME280;3625;51.762;14.320;2022-07-05T15:43:28;100938.13;;;26.50;31.69
7168;BME280;3625;51.762;14.320;2022-07-05T15:46:32;100696.09;;;25.02;31.61
7168;BME280;3625;51.762;14.320;2022-07-05T15:49:17;100679.66;;;25.16;31.73
7168;BME280;3625;51.762;14.320;2022-07-05T15:51:58;100741.22;;;26.03;31.41
7168;BME280;3625;51.762;14.320;2022-07-05T15:54:37;100667.13;;;25.60;30.94
7168;BME280;3625;51.762;14.320;2022-07-05T15:57:29;100650.00;;;25.59;30.46
7168;BME280;3625;51.762;14.320;2022-07-05T16:00:22;100924.44;;;27.17;30.68
7168;BME280;3625;51.762;14.320;2022-07-05T16:03:17;100824.38;;;26.58;31.14
7168;BME280;3625;51.762;14.320;2022-07-05T16:06:09;100747.50;;;26.04;31.80
7168;BME280;3625;51.762;14.320;2022-07-05T16:08:39;100673.47;;;25.70;31.99
7168;BME280;3625;51.762;14.320;2022-07-05T16:11:14;100698.31;;;26.08;31.33
7168;BME280;3625;51.762;14.320;2022-07-05T16:13:42;100893.84;;;27.36;30.35
7168;BME280;3625;51.762;14.320;2022-07-05T16:16:11;100683.25;;;26.15;29.95
7168;BME280;3625;51.762;14.320;2022-07-05T16:18:49;100688.31;;;26.09;30.68
7168;BME280;3625;51.762;14.320;2022-07-05T16:21:21;100646.00;;;25.74;30.33
7168;BME280;3625;51.762;14.320;2022-07-05T16:23:55;100816.34;;;26.57;30.47
7168;BME280;3625;51.762;14.320;2022-07-05T16:26:35;100709.28;;;25.96;30.81
7168;BME280;3625;51.762;14.320;2022-07-05T16:29:12;100610.66;;;25.53;30.87
7168;BME280;3625;51.762;14.320;2022-07-05T16:31:41;100865.06;;;27.13;30.86
7168;BME280;3625;51.762;14.320;2022-07-05T16:34:23;100768.53;;;26.77;30.03
7168;BME280;3625;51.762;14.320;2022-07-05T16:37:03;100841.66;;;27.42;30.21
7168;BME280;3625;51.762;14.320;2022-07-05T16:39:46;100684.09;;;26.59;29.73
7168;BME280;3625;51.762;14.320;2022-07-05T16:42:18;100850.34;;;27.98;29.50
7168;BME280;3625;51.762;14.320;2022-07-05T16:45:03;100881.63;;;28.44;29.13
7168;BME280;3625;51.762;14.320;2022-07-05T16:47:37;100901.88;;;28.51;28.99
7168;BME280;3625;51.762;14.320;2022-07-05T16:50:12;100844.38;;;28.14;29.08
7168;BME280;3625;51.762;14.320;2022-07-05T16:52:51;100672.53;;;27.29;28.92
7168;BME280;3625;51.762;14.320;2022-07-05T16:55:23;100706.03;;;27.60;28.97
7168;BME280;3625;51.762;14.320;2022-07-05T16:57:57;100856.88;;;28.57;28.67
7168;BME280;3625;51.762;14.320;2022-07-05T17:00:30;100667.03;;;27.40;28.55
7168;BME280;3625;51.762;14.320;2022-07-05T17:02:59;100680.91;;;27.16;29.11
7168;BME280;3625;51.762;14.320;2022-07-05T17:05:29;100689.13;;;26.84;29.45
7168;BME280;3625;51.762;14.320;2022-07-05T17:08:03;100894.88;;;27.76;30.19
7168;BME280;3625;51.762;14.320;2022-07-05T17:10:41;100717.88;;;26.87;30.51
7168;BME280;3625;51.762;14.320;2022-07-05T19:02:19;100943.53;;;22.95;40.26
7168;BME280;3625;51.762;14.320;2022-07-05T19:04:48;100813.28;;;22.11;41.27
7168;BME280;3625;51.762;14.320;2022-07-05T19:07:17;100946.19;;;22.82;40.83
7168;BME280;3625;51.762;14.320;2022-07-05T19:10:05;100897.00;;;22.36;41.02
7168;BME280;3625;51.762;14.320;2022-07-05T19:12:51;100687.66;;;20.96;41.32
7168;BME280;3625;51.762;14.320;2022-07-05T19:15:39;100918.59;;;22.22;41.96
7168;BME280;3625;51.762;14.320;2022-07-05T19:18:09;100894.91;;;21.99;42.03
7168;BME280;3625;51.762;14.320;2022-07-05T19:20:40;100933.41;;;22.01;42.42
7168;BME280;3625;51.762;14.320;2022-07-05T19:23:30;100842.56;;;21.30;42.63
7168;BME280;3625;51.762;14.320;2022-07-05T19:26:08;100874.31;;;21.39;42.98
7168;BME280;3625;51.762;14.320;2022-07-05T19:28:42;100765.06;;;20.61;43.07
7168;BME280;3625;51.762;14.320;2022-07-05T19:31:13;100744.06;;;20.38;43.60
7168;BME280;3625;51.762;14.320;2022-07-05T19:33:51;100872.81;;;21.04;43.88
7168;BME280;3625;51.762;14.320;2022-07-05T19:36:21;100905.44;;;21.14;44.17
7168;BME280;3625;51.762;14.320;2022-07-05T19:38:52;100859.94;;;20.79;44.37
7168;BME280;3625;51.762;14.320;2022-07-05T19:41:20;100708.97;;;19.78;44.47
7168;BME280;3625;51.762;14.320;2022-07-05T19:43:53;100805.50;;;20.28;44.71
7168;BME280;3625;51.762;14.320;2022-07-05T19:46:26;100794.97;;;20.24;44.66
7168;BME280;3625;51.762;14.320;2022-07-05T19:48:59;100894.38;;;20.73;45.17
7168;BME280;3625;51.762;14.320;2022-07-05T19:51:27;100897.09;;;20.73;45.54
7168;BME280;3625;51.762;14.320;2022-07-05T19:53:56;100800.91;;;20.15;45.49
7168;BME280;3625;51.762;14.320;2022-07-05T19:56:31;100986.00;;;21.17;46.24
7168;BME280;3625;51.762;14.320;2022-07-05T19:59:06;100964.56;;;20.99;45.92
7168;BME280;3625;51.762;14.320;2022-07-05T20:01:35;100857.16;;;20.33;46.23
7168;BME280;3625;51.762;14.320;2022-07-05T20:04:12;100786.50;;;19.84;46.37
7168;BME280;3625;51.762;14.320;2022-07-05T20:06:43;100766.97;;;19.65;46.43
7168;BME280;3625;51.762;14.320;2022-07-05T20:09:15;100985.22;;;20.83;46.83
7168;BME280;3625;51.762;14.320;2022-07-05T20:11:48;100871.88;;;20.11;47.23
7168;BME280;3625;51.762;14.320;2022-07-05T20:14:32;100735.38;;;19.20;47.38
7168;BME280;3625;51.762;14.320;2022-07-05T20:17:08;100803.69;;;19.65;47.62
7168;BME280;3625;51.762;14.320;2022-07-05T20:19:40;100994.75;;;20.73;47.55
7168;BME280;3625;51.762;14.320;2022-07-05T20:22:10;100757.88;;;19.35;47.52
7168;BME280;3625;51.762;14.320;2022-07-05T20:24:39;100981.63;;;20.67;47.70
7168;BME280;3625;51.762;14.320;2022-07-05T20:27:07;100993.03;;;20.72;47.90
7168;BME280;3625;51.762;14.320;2022-07-05T20:29:39;100907.50;;;20.14;48.01
7168;BME280;3625;51.762;14.320;2022-07-05T20:32:08;101000.47;;;20.67;48.19
7168;BME280;3625;51.762;14.320;2022-07-05T20:34:42;100901.06;;;20.01;47.65
7168;BME280;3625;51.762;14.320;2022-07-05T20:37:11;101002.63;;;20.60;48.07
7168;BME280;3625;51.762;14.320;2022-07-05T20:39:39;100965.94;;;20.26;47.86
7168;BME280;3625;51.762;14.320;2022-07-05T20:42:08;100938.31;;;20.07;48.41
7168;BME280;3625;51.762;14.320;2022-07-05T20:44:37;100914.97;;;19.92;48.47